sensor_id;sensor_type;location;lat;lon;timestamp;P1;durP1;ratioP1;P2;durP2;ratioP2
35887;SDS011;21990;42.540;23.496;2023-08-30T00:00:41;10.98;;;7.35;;
35887;SDS011;21990;42.540;23.496;2023-08-30T00:03:07;14.18;;;7.82;;
35887;SDS011;21990;42.540;23.496;2023-08-30T00:05:33;14.88;;;8.43;;
35887;SDS011;21990;42.540;23.496;2023-08-30T00:07:58;16.08;;;8.82;;
35887;SDS011;21990;42.540;23.496;2023-08-30T00:10:24;18.25;;;8.18;;
35887;SDS011;21990;42.540;23.496;2023-08-30T00:12:49;16.38;;;8.93;;
35887;SDS011;21990;42.540;23.496;2023-08-30T00:15:15;14.88;;;9.00;;
35887;SDS011;21990;42.540;23.496;2023-08-30T00:17:41;16.83;;;8.38;;
35887;SDS011;21990;42.540;23.496;2023-08-30T00:20:07;13.23;;;9.00;;
35887;SDS011;21990;42.540;23.496;2023-08-30T00:22:34;14.77;;;8.73;;
35887;SDS011;21990;42.540;23.496;2023-08-30T00:25:00;15.02;;;8.98;;
35887;SDS011;21990;42.540;23.496;2023-08-30T00:27:26;20.05;;;9.00;;
35887;SDS011;21990;42.540;23.496;2023-08-30T00:29:52;15.45;;;8.75;;
35887;SDS011;21990;42.540;23.496;2023-08-30T00:32:17;20.65;;;8.82;;
35887;SDS011;21990;42.540;23.496;2023-08-30T00:34:43;13.13;;;7.88;;
35887;SDS011;21990;42.540;23.496;2023-08-30T00:37:08;20.52;;;8.60;;
35887;SDS011;21990;42.540;23.496;2023-08-30T00:39:37;13.07;;;8.95;;
35887;SDS011;21990;42.540;23.496;2023-08-30T00:42:03;20.75;;;9.27;;
35887;SDS011;21990;42.540;23.496;2023-08-30T00:44:31;16.95;;;9.43;;
35887;SDS011;21990;42.540;23.496;2023-08-30T00:46:57;16.60;;;9.05;;
35887;SDS011;21990;42.540;23.496;2023-08-30T00:49:23;17.08;;;8.45;;
35887;SDS011;21990;42.540;23.496;2023-08-30T00:51:49;14.43;;;8.60;;
35887;SDS011;21990;42.540;23.496;2023-08-30T00:54:15;18.05;;;8.45;;
35887;SDS011;21990;42.540;23.496;2023-08-30T00:56:41;16.42;;;8.15;;
35887;SDS011;21990;42.540;23.496;2023-08-30T00:59:07;17.27;;;8.05;;
35887;SDS011;21990;42.540;23.496;2023-08-30T01:01:33;21.42;;;8.63;;
35887;SDS011;21990;42.540;23.496;2023-08-30T01:03:58;16.60;;;8.25;;
35887;SDS011;21990;42.540;23.496;2023-08-30T01:06:25;17.80;;;9.00;;
35887;SDS011;21990;42.540;23.496;2023-08-30T01:08:52;14.77;;;8.90;;
35887;SDS011;21990;42.540;23.496;2023-08-30T01:14:08;17.73;;;9.00;;
35887;SDS011;21990;42.540;23.496;2023-08-30T01:16:37;18.58;;;8.98;;
35887;SDS011;21990;42.540;23.496;2023-08-30T01:19:04;16.50;;;8.38;;
35887;SDS011;21990;42.540;23.496;2023-08-30T01:21:58;21.02;;;9.35;;
35887;SDS011;21990;42.540;23.496;2023-08-30T01:24:28;17.92;;;8.30;;
35887;SDS011;21990;42.540;23.496;2023-08-30T01:27:15;24.80;;;9.85;;
35887;SDS011;21990;42.540;23.496;2023-08-30T01:29:43;17.70;;;9.05;;
35887;SDS011;21990;42.540;23.496;2023-08-30T01:32:11;13.32;;;7.97;;
35887;SDS011;21990;42.540;23.496;2023-08-30T01:34:38;18.27;;;8.52;;
35887;SDS011;21990;42.540;23.496;2023-08-30T01:37:08;17.60;;;8.38;;
35887;SDS011;21990;42.540;23.496;2023-08-30T01:39:34;19.33;;;9.48;;
35887;SDS011;21990;42.540;23.496;2023-08-30T01:42:02;20.20;;;8.88;;
35887;SDS011;21990;42.540;23.496;2023-08-30T01:44:29;16.00;;;8.40;;
35887;SDS011;21990;42.540;23.496;2023-08-30T01:46:56;16.42;;;8.80;;
35887;SDS011;21990;42.540;23.496;2023-08-30T01:49:23;14.93;;;8.95;;
35887;SDS011;21990;42.540;23.496;2023-08-30T01:51:50;16.05;;;9.15;;
35887;SDS011;21990;42.540;23.496;2023-08-30T01:54:17;18.45;;;8.63;;
35887;SDS011;21990;42.540;23.496;2023-08-30T01:56:44;15.20;;;8.40;;
35887;SDS011;21990;42.540;23.496;2023-08-30T01:59:11;20.02;;;8.38;;
35887;SDS011;21990;42.540;23.496;2023-08-30T02:01:36;20.73;;;7.68;;
35887;SDS011;21990;42.540;23.496;2023-08-30T02:04:02;12.80;;;7.93;;
35887;SDS011;21990;42.540;23.496;2023-08-30T02:09:22;19.58;;;8.27;;
35887;SDS011;21990;42.540;23.496;2023-08-30T02:11:52;12.25;;;7.53;;
35887;SDS011;21990;42.540;23.496;2023-08-30T02:14:20;16.75;;;8.18;;
35887;SDS011;21990;42.540;23.496;2023-08-30T02:16:47;17.48;;;7.80;;
35887;SDS011;21990;42.540;23.496;2023-08-30T02:19:14;16.55;;;7.65;;
35887;SDS011;21990;42.540;23.496;2023-08-30T02:21:46;14.98;;;7.63;;
35887;SDS011;21990;42.540;23.496;2023-08-30T02:24:13;14.60;;;8.07;;
35887;SDS011;21990;42.540;23.496;2023-08-30T02:26:39;15.15;;;7.20;;
35887;SDS011;21990;42.540;23.496;2023-08-30T02:29:04;19.23;;;8.18;;
35887;SDS011;21990;42.540;23.496;2023-08-30T02:31:30;11.95;;;6.57;;
35887;SDS011;21990;42.540;23.496;2023-08-30T02:33:56;13.95;;;7.38;;
35887;SDS011;21990;42.540;23.496;2023-08-30T02:36:21;16.73;;;7.22;;
35887;SDS011;21990;42.540;23.496;2023-08-30T02:38:47;15.20;;;7.28;;
35887;SDS011;21990;42.540;23.496;2023-08-30T02:41:12;17.23;;;6.78;;
35887;SDS011;21990;42.540;23.496;2023-08-30T02:43:38;14.48;;;6.88;;
35887;SDS011;21990;42.540;23.496;2023-08-30T02:46:03;14.85;;;6.90;;
35887;SDS011;21990;42.540;23.496;2023-08-30T02:48:30;12.77;;;6.70;;
35887;SDS011;21990;42.540;23.496;2023-08-30T02:50:59;16.73;;;6.65;;
35887;SDS011;21990;42.540;23.496;2023-08-30T02:53:24;15.10;;;6.65;;
35887;SDS011;21990;42.540;23.496;2023-08-30T02:55:50;17.30;;;6.20;;
35887;SDS011;21990;42.540;23.496;2023-08-30T02:58:16;13.25;;;6.45;;
35887;SDS011;21990;42.540;23.496;2023-08-30T03:00:42;11.27;;;6.00;;
35887;SDS011;21990;42.540;23.496;2023-08-30T03:03:07;21.38;;;6.68;;
35887;SDS011;21990;42.540;23.496;2023-08-30T03:05:33;21.40;;;6.53;;
35887;SDS011;21990;42.540;23.496;2023-08-30T03:07:59;14.02;;;6.05;;
35887;SDS011;21990;42.540;23.496;2023-08-30T03:10:24;14.20;;;6.53;;
35887;SDS011;21990;42.540;23.496;2023-08-30T03:12:50;13.80;;;6.70;;
35887;SDS011;21990;42.540;23.496;2023-08-30T03:15:16;11.57;;;6.47;;
35887;SDS011;21990;42.540;23.496;2023-08-30T03:17:41;14.60;;;7.00;;
35887;SDS011;21990;42.540;23.496;2023-08-30T03:20:07;18.00;;;6.70;;
35887;SDS011;21990;42.540;23.496;2023-08-30T03:22:33;13.57;;;6.22;;
35887;SDS011;21990;42.540;23.496;2023-08-30T03:24:58;13.32;;;6.18;;
35887;SDS011;21990;42.540;23.496;2023-08-30T03:27:24;14.25;;;6.63;;
35887;SDS011;21990;42.540;23.496;2023-08-30T03:29:50;19.92;;;6.22;;
35887;SDS011;21990;42.540;23.496;2023-08-30T03:32:17;15.32;;;6.30;;
35887;SDS011;21990;42.540;23.496;2023-08-30T03:34:46;13.27;;;6.15;;
35887;SDS011;21990;42.540;23.496;2023-08-30T03:37:15;15.25;;;6.05;;
35887;SDS011;21990;42.540;23.496;2023-08-30T03:39:40;12.82;;;5.82;;
35887;SDS011;21990;42.540;23.496;2023-08-30T03:42:06;12.35;;;6.43;;
35887;SDS011;21990;42.540;23.496;2023-08-30T03:44:32;11.00;;;5.63;;
35887;SDS011;21990;42.540;23.496;2023-08-30T03:46:58;14.23;;;5.97;;
35887;SDS011;21990;42.540;23.496;2023-08-30T03:49:23;11.23;;;5.68;;
35887;SDS011;21990;42.540;23.496;2023-08-30T03:51:49;14.43;;;5.70;;
35887;SDS011;21990;42.540;23.496;2023-08-30T03:54:15;15.27;;;5.90;;
35887;SDS011;21990;42.540;23.496;2023-08-30T03:56:43;19.02;;;6.30;;
35887;SDS011;21990;42.540;23.496;2023-08-30T03:59:09;9.70;;;5.68;;
35887;SDS011;21990;42.540;23.496;2023-08-30T04:01:35;10.23;;;5.50;;
35887;SDS011;21990;42.540;23.496;2023-08-30T04:04:00;14.95;;;6.40;;
35887;SDS011;21990;42.540;23.496;2023-08-30T04:06:26;16.65;;;7.65;;
35887;SDS011;21990;42.540;23.496;2023-08-30T04:08:52;17.98;;;6.03;;
35887;SDS011;21990;42.540;23.496;2023-08-30T04:11:17;12.70;;;7.22;;
35887;SDS011;21990;42.540;23.496;2023-08-30T04:13:43;17.13;;;6.75;;
35887;SDS011;21990;42.540;23.496;2023-08-30T04:16:08;15.48;;;7.57;;
35887;SDS011;21990;42.540;23.496;2023-08-30T04:18:34;11.75;;;6.25;;
35887;SDS011;21990;42.540;23.496;2023-08-30T04:20:59;22.58;;;7.15;;
35887;SDS011;21990;42.540;23.496;2023-08-30T04:23:30;21.52;;;6.80;;
35887;SDS011;21990;42.540;23.496;2023-08-30T04:25:56;19.75;;;7.40;;
35887;SDS011;21990;42.540;23.496;2023-08-30T04:28:21;22.33;;;7.45;;
35887;SDS011;21990;42.540;23.496;2023-08-30T04:30:47;15.25;;;7.72;;
35887;SDS011;21990;42.540;23.496;2023-08-30T04:33:12;17.45;;;7.70;;
35887;SDS011;21990;42.540;23.496;2023-08-30T04:35:38;20.27;;;7.30;;
35887;SDS011;21990;42.540;23.496;2023-08-30T04:38:04;11.77;;;7.05;;
35887;SDS011;21990;42.540;23.496;2023-08-30T04:40:30;17.05;;;7.80;;
35887;SDS011;21990;42.540;23.496;2023-08-30T04:43:00;13.95;;;6.75;;
35887;SDS011;21990;42.540;23.496;2023-08-30T04:45:26;12.18;;;7.25;;
35887;SDS011;21990;42.540;23.496;2023-08-30T04:47:52;15.20;;;6.93;;
35887;SDS011;21990;42.540;23.496;2023-08-30T04:50:18;16.42;;;7.30;;
35887;SDS011;21990;42.540;23.496;2023-08-30T04:52:44;17.75;;;7.15;;
35887;SDS011;21990;42.540;23.496;2023-08-30T04:55:09;23.35;;;6.70;;
35887;SDS011;21990;42.540;23.496;2023-08-30T04:57:35;14.85;;;7.05;;
35887;SDS011;21990;42.540;23.496;2023-08-30T05:00:00;13.07;;;6.28;;
35887;SDS011;21990;42.540;23.496;2023-08-30T05:02:29;26.30;;;7.05;;
35887;SDS011;21990;42.540;23.496;2023-08-30T05:04:56;11.95;;;6.15;;
35887;SDS011;21990;42.540;23.496;2023-08-30T05:07:21;18.67;;;7.22;;
35887;SDS011;21990;42.540;23.496;2023-08-30T05:09:47;15.25;;;6.88;;
35887;SDS011;21990;42.540;23.496;2023-08-30T05:12:12;10.52;;;6.57;;
35887;SDS011;21990;42.540;23.496;2023-08-30T05:14:38;14.38;;;6.63;;
35887;SDS011;21990;42.540;23.496;2023-08-30T05:17:05;17.52;;;7.28;;
35887;SDS011;21990;42.540;23.496;2023-08-30T05:19:31;16.17;;;7.38;;
35887;SDS011;21990;42.540;23.496;2023-08-30T05:21:56;17.75;;;7.05;;
35887;SDS011;21990;42.540;23.496;2023-08-30T05:24:22;13.23;;;7.10;;
35887;SDS011;21990;42.540;23.496;2023-08-30T05:26:48;12.73;;;7.63;;
35887;SDS011;21990;42.540;23.496;2023-08-30T05:29:14;12.23;;;6.82;;
35887;SDS011;21990;42.540;23.496;2023-08-30T05:31:40;19.55;;;7.35;;
35887;SDS011;21990;42.540;23.496;2023-08-30T05:34:06;14.00;;;7.00;;
35887;SDS011;21990;42.540;23.496;2023-08-30T05:36:32;13.98;;;6.88;;
35887;SDS011;21990;42.540;23.496;2023-08-30T05:38:57;18.65;;;7.30;;
35887;SDS011;21990;42.540;23.496;2023-08-30T05:41:23;20.00;;;6.60;;
35887;SDS011;21990;42.540;23.496;2023-08-30T05:43:48;16.38;;;6.63;;
35887;SDS011;21990;42.540;23.496;2023-08-30T05:46:14;17.70;;;6.32;;
35887;SDS011;21990;42.540;23.496;2023-08-30T05:48:40;10.45;;;5.45;;
35887;SDS011;21990;42.540;23.496;2023-08-30T05:51:06;15.07;;;5.22;;
35887;SDS011;21990;42.540;23.496;2023-08-30T05:53:32;9.48;;;5.10;;
35887;SDS011;21990;42.540;23.496;2023-08-30T05:55:58;14.35;;;5.13;;
35887;SDS011;21990;42.540;23.496;2023-08-30T05:58:23;14.20;;;5.05;;
35887;SDS011;21990;42.540;23.496;2023-08-30T06:00:49;8.95;;;4.30;;
35887;SDS011;21990;42.540;23.496;2023-08-30T06:03:14;11.18;;;4.00;;
35887;SDS011;21990;42.540;23.496;2023-08-30T06:05:40;17.80;;;4.57;;
35887;SDS011;21990;42.540;23.496;2023-08-30T06:08:05;12.70;;;4.38;;
35887;SDS011;21990;42.540;23.496;2023-08-30T06:10:33;7.63;;;4.00;;
35887;SDS011;21990;42.540;23.496;2023-08-30T06:12:58;9.52;;;4.05;;
35887;SDS011;21990;42.540;23.496;2023-08-30T06:15:24;9.68;;;4.18;;
35887;SDS011;21990;42.540;23.496;2023-08-30T06:17:53;16.00;;;4.65;;
35887;SDS011;21990;42.540;23.496;2023-08-30T06:20:18;9.98;;;3.60;;
35887;SDS011;21990;42.540;23.496;2023-08-30T06:22:44;19.73;;;4.07;;
35887;SDS011;21990;42.540;23.496;2023-08-30T06:25:10;10.15;;;3.97;;
35887;SDS011;21990;42.540;23.496;2023-08-30T06:27:40;13.85;;;3.92;;
35887;SDS011;21990;42.540;23.496;2023-08-30T06:30:07;9.57;;;3.95;;
35887;SDS011;21990;42.540;23.496;2023-08-30T06:32:33;17.88;;;3.70;;
35887;SDS011;21990;42.540;23.496;2023-08-30T06:34:59;12.10;;;4.13;;
35887;SDS011;21990;42.540;23.496;2023-08-30T06:37:25;9.40;;;3.72;;
35887;SDS011;21990;42.540;23.496;2023-08-30T06:39:50;10.68;;;3.58;;
35887;SDS011;21990;42.540;23.496;2023-08-30T06:42:16;14.68;;;3.95;;
35887;SDS011;21990;42.540;23.496;2023-08-30T06:44:41;12.50;;;3.60;;
35887;SDS011;21990;42.540;23.496;2023-08-30T06:47:07;8.63;;;3.53;;
35887;SDS011;21990;42.540;23.496;2023-08-30T06:49:33;15.07;;;3.42;;
35887;SDS011;21990;42.540;23.496;2023-08-30T06:51:59;9.35;;;3.72;;
35887;SDS011;21990;42.540;23.496;2023-08-30T06:54:28;10.45;;;3.05;;
35887;SDS011;21990;42.540;23.496;2023-08-30T06:56:59;12.32;;;3.42;;
35887;SDS011;21990;42.540;23.496;2023-08-30T06:59:25;8.20;;;3.42;;
35887;SDS011;21990;42.540;23.496;2023-08-30T07:01:54;8.52;;;3.70;;
35887;SDS011;21990;42.540;23.496;2023-08-30T07:04:21;13.40;;;3.78;;
35887;SDS011;21990;42.540;23.496;2023-08-30T07:06:46;8.90;;;3.15;;
35887;SDS011;21990;42.540;23.496;2023-08-30T07:09:12;13.95;;;4.03;;
35887;SDS011;21990;42.540;23.496;2023-08-30T07:11:38;11.65;;;3.22;;
35887;SDS011;21990;42.540;23.496;2023-08-30T07:14:03;6.47;;;2.83;;
35887;SDS011;21990;42.540;23.496;2023-08-30T07:16:30;14.90;;;3.58;;
35887;SDS011;21990;42.540;23.496;2023-08-30T07:18:57;12.07;;;3.10;;
35887;SDS011;21990;42.540;23.496;2023-08-30T07:21:23;9.27;;;3.17;;
35887;SDS011;21990;42.540;23.496;2023-08-30T07:23:51;8.70;;;3.40;;
35887;SDS011;21990;42.540;23.496;2023-08-30T07:26:17;14.07;;;3.45;;
35887;SDS011;21990;42.540;23.496;2023-08-30T07:28:42;6.40;;;3.03;;
35887;SDS011;21990;42.540;23.496;2023-08-30T07:31:08;10.75;;;3.45;;
35887;SDS011;21990;42.540;23.496;2023-08-30T07:33:34;13.15;;;3.20;;
35887;SDS011;21990;42.540;23.496;2023-08-30T07:36:00;10.23;;;3.58;;
35887;SDS011;21990;42.540;23.496;2023-08-30T07:38:26;19.80;;;3.30;;
35887;SDS011;21990;42.540;23.496;2023-08-30T07:40:52;9.40;;;3.15;;
35887;SDS011;21990;42.540;23.496;2023-08-30T07:43:18;16.30;;;3.05;;
35887;SDS011;21990;42.540;23.496;2023-08-30T07:45:45;10.55;;;3.75;;
35887;SDS011;21990;42.540;23.496;2023-08-30T07:48:10;7.53;;;3.10;;
35887;SDS011;21990;42.540;23.496;2023-08-30T07:50:40;11.65;;;3.28;;
35887;SDS011;21990;42.540;23.496;2023-08-30T07:53:05;7.25;;;3.38;;
35887;SDS011;21990;42.540;23.496;2023-08-30T07:55:31;12.05;;;3.58;;
35887;SDS011;21990;42.540;23.496;2023-08-30T07:57:57;10.73;;;3.50;;
35887;SDS011;21990;42.540;23.496;2023-08-30T08:00:22;14.68;;;3.88;;
35887;SDS011;21990;42.540;23.496;2023-08-30T08:02:48;10.40;;;3.60;;
35887;SDS011;21990;42.540;23.496;2023-08-30T08:05:14;11.20;;;3.70;;
35887;SDS011;21990;42.540;23.496;2023-08-30T08:07:42;6.03;;;3.50;;
35887;SDS011;21990;42.540;23.496;2023-08-30T08:10:11;9.23;;;3.63;;
35887;SDS011;21990;42.540;23.496;2023-08-30T08:12:37;7.97;;;3.40;;
35887;SDS011;21990;42.540;23.496;2023-08-30T08:15:03;11.32;;;3.80;;
35887;SDS011;21990;42.540;23.496;2023-08-30T08:17:29;10.57;;;3.38;;
35887;SDS011;21990;42.540;23.496;2023-08-30T08:19:54;7.55;;;3.10;;
35887;SDS011;21990;42.540;23.496;2023-08-30T08:22:22;10.80;;;3.78;;
35887;SDS011;21990;42.540;23.496;2023-08-30T08:24:48;11.77;;;3.75;;
35887;SDS011;21990;42.540;23.496;2023-08-30T08:27:16;6.53;;;3.53;;
35887;SDS011;21990;42.540;23.496;2023-08-30T08:29:42;6.40;;;3.28;;
35887;SDS011;21990;42.540;23.496;2023-08-30T08:32:08;7.63;;;3.78;;
35887;SDS011;21990;42.540;23.496;2023-08-30T08:34:33;7.50;;;3.35;;
35887;SDS011;21990;42.540;23.496;2023-08-30T08:36:59;19.10;;;3.65;;
35887;SDS011;21990;42.540;23.496;2023-08-30T08:39:25;10.90;;;3.47;;
35887;SDS011;21990;42.540;23.496;2023-08-30T08:41:50;7.90;;;3.45;;
35887;SDS011;21990;42.540;23.496;2023-08-30T08:44:20;11.60;;;3.83;;
35887;SDS011;21990;42.540;23.496;2023-08-30T08:46:48;8.45;;;3.50;;
35887;SDS011;21990;42.540;23.496;2023-08-30T08:49:15;9.07;;;2.75;;
35887;SDS011;21990;42.540;23.496;2023-08-30T08:51:42;9.82;;;4.00;;
35887;SDS011;21990;42.540;23.496;2023-08-30T08:54:11;6.63;;;3.50;;
35887;SDS011;21990;42.540;23.496;2023-08-30T08:56:37;9.18;;;3.42;;
35887;SDS011;21990;42.540;23.496;2023-08-30T08:59:04;15.20;;;3.67;;
35887;SDS011;21990;42.540;23.496;2023-08-30T09:01:33;12.82;;;3.53;;
35887;SDS011;21990;42.540;23.496;2023-08-30T09:04:06;7.38;;;3.53;;
35887;SDS011;21990;42.540;23.496;2023-08-30T09:06:33;9.18;;;3.95;;
35887;SDS011;21990;42.540;23.496;2023-08-30T09:08:59;9.95;;;4.05;;
35887;SDS011;21990;42.540;23.496;2023-08-30T09:11:25;12.82;;;3.65;;
35887;SDS011;21990;42.540;23.496;2023-08-30T09:13:51;10.18;;;4.13;;
35887;SDS011;21990;42.540;23.496;2023-08-30T09:16:16;15.45;;;4.30;;
35887;SDS011;21990;42.540;23.496;2023-08-30T09:18:42;9.93;;;4.20;;
35887;SDS011;21990;42.540;23.496;2023-08-30T09:21:08;10.88;;;4.07;;
35887;SDS011;21990;42.540;23.496;2023-08-30T09:23:35;12.77;;;4.35;;
35887;SDS011;21990;42.540;23.496;2023-08-30T09:26:02;12.85;;;4.40;;
35887;SDS011;21990;42.540;23.496;2023-08-30T09:28:28;18.00;;;4.10;;
35887;SDS011;21990;42.540;23.496;2023-08-30T09:30:56;10.27;;;4.30;;
35887;SDS011;21990;42.540;23.496;2023-08-30T09:33:30;12.48;;;4.72;;
35887;SDS011;21990;42.540;23.496;2023-08-30T09:35:57;9.55;;;4.40;;
35887;SDS011;21990;42.540;23.496;2023-08-30T09:38:24;17.73;;;5.35;;
35887;SDS011;21990;42.540;23.496;2023-08-30T09:40:50;13.10;;;5.25;;
35887;SDS011;21990;42.540;23.496;2023-08-30T09:43:19;11.68;;;5.00;;
35887;SDS011;21990;42.540;23.496;2023-08-30T09:45:50;12.43;;;5.28;;
35887;SDS011;21990;42.540;23.496;2023-08-30T09:48:17;17.88;;;5.15;;
35887;SDS011;21990;42.540;23.496;2023-08-30T09:50:53;25.27;;;5.43;;
35887;SDS011;21990;42.540;23.496;2023-08-30T09:53:23;19.75;;;5.38;;
35887;SDS011;21990;42.540;23.496;2023-08-30T09:55:53;17.13;;;5.50;;
35887;SDS011;21990;42.540;23.496;2023-08-30T09:58:20;17.20;;;5.72;;
35887;SDS011;21990;42.540;23.496;2023-08-30T10:00:46;19.35;;;5.65;;
35887;SDS011;21990;42.540;23.496;2023-08-30T10:03:13;13.45;;;5.70;;
35887;SDS011;21990;42.540;23.496;2023-08-30T10:05:41;19.20;;;6.28;;
35887;SDS011;21990;42.540;23.496;2023-08-30T10:08:13;9.45;;;5.20;;
35887;SDS011;21990;42.540;23.496;2023-08-30T10:10:39;19.27;;;6.10;;
35887;SDS011;21990;42.540;23.496;2023-08-30T10:13:05;20.75;;;5.55;;
35887;SDS011;21990;42.540;23.496;2023-08-30T10:15:33;9.48;;;5.35;;
35887;SDS011;21990;42.540;23.496;2023-08-30T10:18:01;20.48;;;5.90;;
35887;SDS011;21990;42.540;23.496;2023-08-30T10:20:28;19.40;;;5.68;;
35887;SDS011;21990;42.540;23.496;2023-08-30T10:22:54;16.70;;;5.80;;
35887;SDS011;21990;42.540;23.496;2023-08-30T10:25:24;18.67;;;5.75;;
35887;SDS011;21990;42.540;23.496;2023-08-30T10:27:53;12.93;;;5.53;;
35887;SDS011;21990;42.540;23.496;2023-08-30T10:30:21;17.50;;;5.70;;
35887;SDS011;21990;42.540;23.496;2023-08-30T10:32:48;20.42;;;6.10;;
35887;SDS011;21990;42.540;23.496;2023-08-30T10:35:14;14.07;;;5.38;;
35887;SDS011;21990;42.540;23.496;2023-08-30T10:37:53;20.83;;;5.97;;
35887;SDS011;21990;42.540;23.496;2023-08-30T10:40:24;20.17;;;5.25;;
35887;SDS011;21990;42.540;23.496;2023-08-30T10:43:02;16.48;;;6.20;;
35887;SDS011;21990;42.540;23.496;2023-08-30T10:45:31;23.55;;;5.60;;
35887;SDS011;21990;42.540;23.496;2023-08-30T10:47:57;19.13;;;5.13;;
35887;SDS011;21990;42.540;23.496;2023-08-30T10:50:28;13.52;;;5.18;;
35887;SDS011;21990;42.540;23.496;2023-08-30T10:52:55;11.10;;;5.50;;
35887;SDS011;21990;42.540;23.496;2023-08-30T10:55:24;14.18;;;5.30;;
35887;SDS011;21990;42.540;23.496;2023-08-30T10:58:03;18.30;;;5.43;;
35887;SDS011;21990;42.540;23.496;2023-08-30T11:00:32;15.45;;;5.40;;
35887;SDS011;21990;42.540;23.496;2023-08-30T11:02:58;13.73;;;5.03;;
35887;SDS011;21990;42.540;23.496;2023-08-30T11:05:24;14.23;;;4.88;;
35887;SDS011;21990;42.540;23.496;2023-08-30T11:07:51;18.98;;;5.07;;
35887;SDS011;21990;42.540;23.496;2023-08-30T11:10:18;18.38;;;4.68;;
35887;SDS011;21990;42.540;23.496;2023-08-30T11:12:45;13.55;;;5.13;;
35887;SDS011;21990;42.540;23.496;2023-08-30T11:15:12;14.82;;;5.00;;
35887;SDS011;21990;42.540;23.496;2023-08-30T11:17:39;18.05;;;4.80;;
35887;SDS011;21990;42.540;23.496;2023-08-30T11:20:07;9.82;;;4.85;;
35887;SDS011;21990;42.540;23.496;2023-08-30T11:22:37;18.55;;;4.90;;
35887;SDS011;21990;42.540;23.496;2023-08-30T11:27:36;11.68;;;4.63;;
35887;SDS011;21990;42.540;23.496;2023-08-30T11:30:05;15.68;;;4.72;;
35887;SDS011;21990;42.540;23.496;2023-08-30T11:32:32;17.40;;;4.65;;
35887;SDS011;21990;42.540;23.496;2023-08-30T11:34:59;14.95;;;5.25;;
35887;SDS011;21990;42.540;23.496;2023-08-30T11:37:26;12.07;;;4.40;;
35887;SDS011;21990;42.540;23.496;2023-08-30T11:39:53;19.00;;;5.30;;
35887;SDS011;21990;42.540;23.496;2023-08-30T11:42:21;14.07;;;5.57;;
35887;SDS011;21990;42.540;23.496;2023-08-30T11:44:46;19.25;;;6.10;;
35887;SDS011;21990;42.540;23.496;2023-08-30T11:47:34;15.77;;;5.30;;
35887;SDS011;21990;42.540;23.496;2023-08-30T11:49:59;11.48;;;5.28;;
35887;SDS011;21990;42.540;23.496;2023-08-30T11:52:25;27.08;;;6.32;;
35887;SDS011;21990;42.540;23.496;2023-08-30T11:54:51;12.95;;;5.32;;
35887;SDS011;21990;42.540;23.496;2023-08-30T11:57:18;15.80;;;6.05;;
35887;SDS011;21990;42.540;23.496;2023-08-30T11:59:44;14.70;;;4.70;;
35887;SDS011;21990;42.540;23.496;2023-08-30T12:02:12;14.60;;;5.78;;
35887;SDS011;21990;42.540;23.496;2023-08-30T12:04:40;13.25;;;5.93;;
35887;SDS011;21990;42.540;23.496;2023-08-30T12:07:20;14.10;;;5.80;;
35887;SDS011;21990;42.540;23.496;2023-08-30T12:09:49;18.05;;;5.85;;
35887;SDS011;21990;42.540;23.496;2023-08-30T12:12:15;17.33;;;5.95;;
35887;SDS011;21990;42.540;23.496;2023-08-30T12:14:40;18.15;;;5.70;;
35887;SDS011;21990;42.540;23.496;2023-08-30T12:17:08;13.10;;;5.32;;
35887;SDS011;21990;42.540;23.496;2023-08-30T12:19:34;11.25;;;5.25;;
35887;SDS011;21990;42.540;23.496;2023-08-30T12:22:08;15.65;;;5.78;;
35887;SDS011;21990;42.540;23.496;2023-08-30T12:24:44;16.85;;;5.75;;
35887;SDS011;21990;42.540;23.496;2023-08-30T12:27:10;12.48;;;5.60;;
35887;SDS011;21990;42.540;23.496;2023-08-30T12:29:35;10.27;;;4.97;;
35887;SDS011;21990;42.540;23.496;2023-08-30T12:32:01;14.68;;;5.50;;
35887;SDS011;21990;42.540;23.496;2023-08-30T12:34:27;18.70;;;5.85;;
35887;SDS011;21990;42.540;23.496;2023-08-30T12:36:52;14.98;;;6.05;;
35887;SDS011;21990;42.540;23.496;2023-08-30T12:39:18;12.57;;;4.88;;
35887;SDS011;21990;42.540;23.496;2023-08-30T12:41:44;14.80;;;5.40;;
35887;SDS011;21990;42.540;23.496;2023-08-30T12:44:09;12.02;;;5.03;;
35887;SDS011;21990;42.540;23.496;2023-08-30T12:46:35;20.45;;;5.68;;
35887;SDS011;21990;42.540;23.496;2023-08-30T12:49:01;14.32;;;5.20;;
35887;SDS011;21990;42.540;23.496;2023-08-30T12:51:26;10.18;;;4.90;;
35887;SDS011;21990;42.540;23.496;2023-08-30T12:53:52;12.57;;;5.25;;
35887;SDS011;21990;42.540;23.496;2023-08-30T12:56:17;12.18;;;5.00;;
35887;SDS011;21990;42.540;23.496;2023-08-30T12:58:43;18.85;;;5.40;;
35887;SDS011;21990;42.540;23.496;2023-08-30T13:01:09;9.55;;;4.72;;
35887;SDS011;21990;42.540;23.496;2023-08-30T13:03:34;11.52;;;5.10;;
35887;SDS011;21990;42.540;23.496;2023-08-30T13:06:00;11.25;;;5.00;;
35887;SDS011;21990;42.540;23.496;2023-08-30T13:08:26;25.38;;;5.43;;
35887;SDS011;21990;42.540;23.496;2023-08-30T13:10:52;16.35;;;4.75;;
35887;SDS011;21990;42.540;23.496;2023-08-30T13:13:18;22.30;;;5.70;;
35887;SDS011;21990;42.540;23.496;2023-08-30T13:15:43;26.48;;;5.90;;
35887;SDS011;21990;42.540;23.496;2023-08-30T13:18:09;34.88;;;6.05;;
35887;SDS011;21990;42.540;23.496;2023-08-30T13:20:37;21.35;;;5.38;;
35887;SDS011;21990;42.540;23.496;2023-08-30T13:23:04;11.98;;;4.88;;
35887;SDS011;21990;42.540;23.496;2023-08-30T13:25:30;17.98;;;5.60;;
35887;SDS011;21990;42.540;23.496;2023-08-30T13:27:55;30.15;;;5.32;;
35887;SDS011;21990;42.540;23.496;2023-08-30T13:30:21;16.08;;;5.32;;
35887;SDS011;21990;42.540;23.496;2023-08-30T13:32:46;11.98;;;4.93;;
35887;SDS011;21990;42.540;23.496;2023-08-30T13:35:12;13.98;;;5.18;;
35887;SDS011;21990;42.540;23.496;2023-08-30T13:37:37;14.30;;;4.78;;
35887;SDS011;21990;42.540;23.496;2023-08-30T13:40:03;14.05;;;4.93;;
35887;SDS011;21990;42.540;23.496;2023-08-30T13:42:32;11.55;;;4.30;;
35887;SDS011;21990;42.540;23.496;2023-08-30T13:44:58;9.85;;;4.85;;
35887;SDS011;21990;42.540;23.496;2023-08-30T13:47:23;7.38;;;4.40;;
35887;SDS011;21990;42.540;23.496;2023-08-30T13:49:54;11.32;;;4.32;;
35887;SDS011;21990;42.540;23.496;2023-08-30T13:52:20;12.15;;;4.85;;
35887;SDS011;21990;42.540;23.496;2023-08-30T13:54:46;8.07;;;4.47;;
35887;SDS011;21990;42.540;23.496;2023-08-30T13:57:11;11.23;;;4.68;;
35887;SDS011;21990;42.540;23.496;2023-08-30T13:59:37;14.95;;;4.63;;
35887;SDS011;21990;42.540;23.496;2023-08-30T14:02:03;9.90;;;4.28;;
35887;SDS011;21990;42.540;23.496;2023-08-30T14:04:29;11.68;;;4.20;;
35887;SDS011;21990;42.540;23.496;2023-08-30T14:06:57;12.40;;;4.78;;
35887;SDS011;21990;42.540;23.496;2023-08-30T14:09:23;11.07;;;5.20;;
35887;SDS011;21990;42.540;23.496;2023-08-30T14:11:49;19.60;;;4.18;;
35887;SDS011;21990;42.540;23.496;2023-08-30T14:14:15;13.15;;;4.82;;
35887;SDS011;21990;42.540;23.496;2023-08-30T14:16:40;12.05;;;4.55;;
35887;SDS011;21990;42.540;23.496;2023-08-30T14:19:06;16.48;;;4.82;;
35887;SDS011;21990;42.540;23.496;2023-08-30T14:21:32;11.73;;;4.40;;
35887;SDS011;21990;42.540;23.496;2023-08-30T14:23:58;11.55;;;4.45;;
35887;SDS011;21990;42.540;23.496;2023-08-30T14:26:24;15.60;;;4.90;;
35887;SDS011;21990;42.540;23.496;2023-08-30T14:28:53;12.52;;;4.43;;